sensor_id;sensor_type;location;lat;lon;timestamp;pressure;altitude;pressure_sealevel;temperature;humidity
39789;BME280;25478;42.626;23.320;2022-08-21T00:00:13;92647.88;;;16.86;100.00
39789;BME280;25478;42.626;23.320;2022-08-21T00:02:54;92637.25;;;16.86;100.00
39789;BME280;25478;42.626;23.320;2022-08-21T00:05:28;92637.16;;;16.90;100.00
39789;BME280;25478;42.626;23.320;2022-08-21T00:08:01;92638.66;;;16.91;100.00
39789;BME280;25478;42.626;23.320;2022-08-21T00:10:34;92632.59;;;16.91;100.00
39789;BME280;25478;42.626;23.320;2022-08-21T00:13:07;92630.97;;;16.93;100.00
39789;BME280;25478;42.626;23.320;2022-08-21T00:15:39;92621.72;;;16.98;100.00
39789;BME280;25478;42.626;23.320;2022-08-21T00:18:11;92616.75;;;17.00;100.00
39789;BME280;25478;42.626;23.320;2022-08-21T00:20:44;92620.78;;;17.04;100.00
39789;BME280;25478;42.626;23.320;2022-08-21T00:23:11;92602.59;;;17.03;100.00
39789;BME280;25478;42.626;23.320;2022-08-21T00:25:44;92619.81;;;17.11;100.00
39789;BME280;25478;42.626;23.320;2022-08-21T00:28:16;92623.97;;;17.12;100.00
39789;BME280;25478;42.626;23.320;2022-08-21T00:30:47;92616.41;;;17.10;100.00
39789;BME280;25478;42.626;23.320;2022-08-21T00:33:19;92616.41;;;17.10;100.00
39789;BME280;25478;42.626;23.320;2022-08-21T00:35:45;92621.31;;;17.12;100.00
39789;BME280;25478;42.626;23.320;2022-08-21T00:38:24;92559.41;;;16.73;100.00
39789;BME280;25478;42.626;23.320;2022-08-21T00:40:59;92621.97;;;17.16;100.00
39789;BME280;25478;42.626;23.320;2022-08-21T00:43:34;92622.59;;;17.20;100.00
39789;BME280;25478;42.626;23.320;2022-08-21T00:46:06;92628.97;;;17.23;100.00
39789;BME280;25478;42.626;23.320;2022-08-21T00:48:39;92628.56;;;17.24;100.00
39789;BME280;25478;42.626;23.320;2022-08-21T00:51:18;92623.97;;;17.25;100.00
39789;BME280;25478;42.626;23.320;2022-08-21T00:53:57;92628.66;;;17.21;100.00
39789;BME280;25478;42.626;23.320;2022-08-21T00:56:32;92628.66;;;17.21;100.00
39789;BME280;25478;42.626;23.320;2022-08-21T00:59:05;92627.59;;;17.18;100.00
39789;BME280;25478;42.626;23.320;2022-08-21T01:01:37;92625.78;;;17.15;100.00
39789;BME280;25478;42.626;23.320;2022-08-21T01:04:11;92613.44;;;17.08;100.00
39789;BME280;25478;42.626;23.320;2022-08-21T01:06:43;92611.53;;;17.09;100.00
39789;BME280;25478;42.626;23.320;2022-08-21T01:09:10;92610.25;;;17.13;100.00
39789;BME280;25478;42.626;23.320;2022-08-21T01:11:43;92603.00;;;17.14;100.00
39789;BME280;25478;42.626;23.320;2022-08-21T01:14:15;92598.56;;;17.11;100.00
39789;BME280;25478;42.626;23.320;2022-08-21T01:16:50;92603.75;;;17.14;100.00
39789;BME280;25478;42.626;23.320;2022-08-21T01:19:17;92605.66;;;17.14;100.00
39789;BME280;25478;42.626;23.320;2022-08-21T01:21:50;92594.72;;;17.12;100.00
39789;BME280;25478;42.626;23.320;2022-08-21T01:24:22;92601.09;;;17.14;100.00
39789;BME280;25478;42.626;23.320;2022-08-21T01:26:55;92586.00;;;17.11;100.00
39789;BME280;25478;42.626;23.320;2022-08-21T01:29:43;92593.84;;;17.15;100.00
39789;BME280;25478;42.626;23.320;2022-08-21T01:32:17;92595.47;;;17.12;100.00
39789;BME280;25478;42.626;23.320;2022-08-21T01:34:49;92596.53;;;17.02;100.00
39789;BME280;25478;42.626;23.320;2022-08-21T01:37:30;92604.00;;;17.07;100.00
39789;BME280;25478;42.626;23.320;2022-08-21T01:40:10;92599.50;;;17.04;100.00
39789;BME280;25478;42.626;23.320;2022-08-21T01:42:43;92600.56;;;16.94;100.00
39789;BME280;25478;42.626;23.320;2022-08-21T01:45:15;92596.75;;;16.95;100.00
39789;BME280;25478;42.626;23.320;2022-08-21T01:47:47;92593.34;;;16.95;100.00
39789;BME280;25478;42.626;23.320;2022-08-21T01:50:21;92594.94;;;16.92;100.00
39789;BME280;25478;42.626;23.320;2022-08-21T01:52:52;92602.91;;;16.92;100.00
39789;BME280;25478;42.626;23.320;2022-08-21T01:55:24;92605.25;;;16.90;100.00
39789;BME280;25478;42.626;23.320;2022-08-21T01:57:57;92598.53;;;16.85;100.00
39789;BME280;25478;42.626;23.320;2022-08-21T02:00:30;92602.47;;;16.81;100.00
39789;BME280;25478;42.626;23.320;2022-08-21T02:03:03;92601.72;;;16.80;100.00
39789;BME280;25478;42.626;23.320;2022-08-21T02:05:34;92599.59;;;16.75;100.00
39789;BME280;25478;42.626;23.320;2022-08-21T02:08:07;92594.91;;;16.79;100.00
39789;BME280;25478;42.626;23.320;2022-08-21T02:10:38;92599.91;;;16.77;100.00
39789;BME280;25478;42.626;23.320;2022-08-21T02:13:12;92608.59;;;16.65;100.00
39789;BME280;25478;42.626;23.320;2022-08-21T02:15:44;92613.56;;;16.63;100.00
39789;BME280;25478;42.626;23.320;2022-08-21T02:18:16;92606.44;;;16.60;100.00
39789;BME280;25478;42.626;23.320;2022-08-21T02:20:49;92601.66;;;16.55;100.00
39789;BME280;25478;42.626;23.320;2022-08-21T02:23:22;92610.47;;;16.52;100.00
39789;BME280;25478;42.626;23.320;2022-08-21T02:25:57;92614.38;;;16.47;100.00
39789;BME280;25478;42.626;23.320;2022-08-21T02:28:30;92615.66;;;16.43;100.00
39789;BME280;25478;42.626;23.320;2022-08-21T02:31:02;92627.13;;;16.40;100.00
39789;BME280;25478;42.626;23.320;2022-08-21T02:33:34;92619.56;;;16.38;100.00
39789;BME280;25478;42.626;23.320;2022-08-21T02:36:20;92620.41;;;16.35;100.00
39789;BME280;25478;42.626;23.320;2022-08-21T02:38:52;92625.41;;;16.33;100.00
39789;BME280;25478;42.626;23.320;2022-08-21T02:41:31;92621.59;;;16.34;100.00
39789;BME280;25478;42.626;23.320;2022-08-21T02:44:03;92630.31;;;16.35;100.00
39789;BME280;25478;42.626;23.320;2022-08-21T02:46:42;92623.94;;;16.32;100.00
39789;BME280;25478;42.626;23.320;2022-08-21T02:49:14;92626.16;;;16.33;100.00
39789;BME280;25478;42.626;23.320;2022-08-21T02:51:46;92614.38;;;16.35;100.00
39789;BME280;25478;42.626;23.320;2022-08-21T02:54:18;92612.88;;;16.33;100.00
39789;BME280;25478;42.626;23.320;2022-08-21T02:56:50;92618.94;;;16.34;100.00
39789;BME280;25478;42.626;23.320;2022-08-21T02:59:23;92626.47;;;16.36;100.00
39789;BME280;25478;42.626;23.320;2022-08-21T03:01:54;92624.88;;;16.38;100.00
39789;BME280;25478;42.626;23.320;2022-08-21T03:04:27;92629.38;;;16.41;100.00
39789;BME280;25478;42.626;23.320;2022-08-21T03:06:59;92622.88;;;16.42;100.00
39789;BME280;25478;42.626;23.320;2022-08-21T03:09:31;92624.38;;;16.43;100.00
39789;BME280;25478;42.626;23.320;2022-08-21T03:11:57;92624.69;;;16.45;100.00
39789;BME280;25478;42.626;23.320;2022-08-21T03:14:29;92623.88;;;16.48;100.00
39789;BME280;25478;42.626;23.320;2022-08-21T03:17:01;92621.53;;;16.50;100.00
39789;BME280;25478;42.626;23.320;2022-08-21T03:19:33;92613.88;;;16.52;100.00
39789;BME280;25478;42.626;23.320;2022-08-21T03:22:05;92616.97;;;16.51;100.00
39789;BME280;25478;42.626;23.320;2022-08-21T03:24:37;92594.50;;;16.39;100.00
39789;BME280;25478;42.626;23.320;2022-08-21T03:27:09;92606.41;;;16.47;100.00
39789;BME280;25478;42.626;23.320;2022-08-21T03:29:41;92607.94;;;16.48;100.00
39789;BME280;25478;42.626;23.320;2022-08-21T03:32:13;92612.47;;;16.48;100.00
39789;BME280;25478;42.626;23.320;2022-08-21T03:34:46;92604.19;;;16.46;100.00
39789;BME280;25478;42.626;23.320;2022-08-21T03:37:26;92606.53;;;16.44;100.00
39789;BME280;25478;42.626;23.320;2022-08-21T03:39:58;92617.78;;;16.48;100.00
39789;BME280;25478;42.626;23.320;2022-08-21T03:42:29;92589.72;;;16.34;100.00
39789;BME280;25478;42.626;23.320;2022-08-21T03:44:55;92607.16;;;16.48;100.00
39789;BME280;25478;42.626;23.320;2022-08-21T03:47:27;92603.34;;;16.49;100.00
39789;BME280;25478;42.626;23.320;2022-08-21T03:49:59;92602.63;;;16.48;100.00
39789;BME280;25478;42.626;23.320;2022-08-21T03:52:31;92616.66;;;16.49;100.00
39789;BME280;25478;42.626;23.320;2022-08-21T03:55:04;92622.69;;;16.49;100.00
39789;BME280;25478;42.626;23.320;2022-08-21T03:57:35;92623.53;;;16.46;100.00
39789;BME280;25478;42.626;23.320;2022-08-21T04:00:08;92612.69;;;16.41;100.00
39789;BME280;25478;42.626;23.320;2022-08-21T04:02:43;92634.16;;;16.46;100.00
39789;BME280;25478;42.626;23.320;2022-08-21T04:05:16;92628.38;;;16.35;100.00
39789;BME280;25478;42.626;23.320;2022-08-21T04:08:04;92639.75;;;16.36;100.00
39789;BME280;25478;42.626;23.320;2022-08-21T04:10:38;92632.22;;;16.34;100.00
39789;BME280;25478;42.626;23.320;2022-08-21T04:13:10;92628.50;;;16.31;100.00
39789;BME280;25478;42.626;23.320;2022-08-21T04:15:42;92611.03;;;16.18;100.00
39789;BME280;25478;42.626;23.320;2022-08-21T04:18:15;92635.38;;;16.29;100.00
39789;BME280;25478;42.626;23.320;2022-08-21T04:20:50;92629.63;;;16.30;100.00
39789;BME280;25478;42.626;23.320;2022-08-21T04:23:23;92625.84;;;16.31;100.00
39789;BME280;25478;42.626;23.320;2022-08-21T04:25:56;92625.41;;;16.33;100.00
39789;BME280;25478;42.626;23.320;2022-08-21T04:28:29;92622.34;;;16.35;100.00
39789;BME280;25478;42.626;23.320;2022-08-21T04:31:00;92615.84;;;16.36;100.00
39789;BME280;25478;42.626;23.320;2022-08-21T04:33:32;92629.78;;;16.40;100.00
39789;BME280;25478;42.626;23.320;2022-08-21T04:36:05;92616.09;;;16.41;100.00
39789;BME280;25478;42.626;23.320;2022-08-21T04:38:51;92610.97;;;16.34;100.00
39789;BME280;25478;42.626;23.320;2022-08-21T04:41:23;92610.53;;;16.36;100.00
39789;BME280;25478;42.626;23.320;2022-08-21T04:43:55;92609.78;;;16.35;100.00
39789;BME280;25478;42.626;23.320;2022-08-21T04:46:28;92607.13;;;16.35;100.00
39789;BME280;25478;42.626;23.320;2022-08-21T04:48:59;92613.44;;;16.41;100.00
39789;BME280;25478;42.626;23.320;2022-08-21T04:51:35;92617.91;;;16.44;100.00
39789;BME280;25478;42.626;23.320;2022-08-21T04:54:12;92615.97;;;16.45;100.00
39789;BME280;25478;42.626;23.320;2022-08-21T04:56:56;92610.78;;;16.54;100.00
39789;BME280;25478;42.626;23.320;2022-08-21T04:59:36;92610.91;;;16.63;100.00
39789;BME280;25478;42.626;23.320;2022-08-21T05:02:10;92621.41;;;16.83;100.00
39789;BME280;25478;42.626;23.320;2022-08-21T05:04:51;92620.03;;;17.04;100.00
39789;BME280;25478;42.626;23.320;2022-08-21T05:07:27;92626.53;;;17.28;100.00
39789;BME280;25478;42.626;23.320;2022-08-21T05:10:00;92622.34;;;17.53;100.00
39789;BME280;25478;42.626;23.320;2022-08-21T05:12:33;92625.22;;;17.71;100.00
39789;BME280;25478;42.626;23.320;2022-08-21T05:15:06;92615.84;;;17.79;100.00
39789;BME280;25478;42.626;23.320;2022-08-21T05:17:38;92614.56;;;17.84;100.00
39789;BME280;25478;42.626;23.320;2022-08-21T05:20:13;92621.06;;;17.83;100.00
39789;BME280;25478;42.626;23.320;2022-08-21T05:22:44;92625.44;;;17.77;100.00
39789;BME280;25478;42.626;23.320;2022-08-21T05:25:16;92632.44;;;17.83;100.00
39789;BME280;25478;42.626;23.320;2022-08-21T05:27:48;92622.94;;;17.82;100.00
39789;BME280;25478;42.626;23.320;2022-08-21T05:30:20;92624.72;;;17.98;100.00
39789;BME280;25478;42.626;23.320;2022-08-21T05:33:00;92623.59;;;18.21;100.00
39789;BME280;25478;42.626;23.320;2022-08-21T05:35:33;92606.81;;;18.33;100.00
39789;BME280;25478;42.626;23.320;2022-08-21T05:38:06;92618.78;;;18.50;100.00
39789;BME280;25478;42.626;23.320;2022-08-21T05:40:45;92621.28;;;18.67;100.00
39789;BME280;25478;42.626;23.320;2022-08-21T05:43:17;92611.06;;;18.74;100.00
39789;BME280;25478;42.626;23.320;2022-08-21T05:45:49;92614.91;;;18.73;100.00
39789;BME280;25478;42.626;23.320;2022-08-21T05:48:23;92621.00;;;18.74;100.00
39789;BME280;25478;42.626;23.320;2022-08-21T05:50:55;92612.41;;;18.70;100.00
39789;BME280;25478;42.626;23.320;2022-08-21T05:53:27;92611.22;;;18.71;100.00
39789;BME280;25478;42.626;23.320;2022-08-21T05:55:59;92604.09;;;18.68;100.00
39789;BME280;25478;42.626;23.320;2022-08-21T05:58:32;92617.94;;;18.63;100.00
39789;BME280;25478;42.626;23.320;2022-08-21T06:01:05;92618.38;;;18.61;100.00
39789;BME280;25478;42.626;23.320;2022-08-21T06:03:39;92611.41;;;18.76;100.00
39789;BME280;25478;42.626;23.320;2022-08-21T06:06:11;92613.31;;;19.07;99.97
39789;BME280;25478;42.626;23.320;2022-08-21T06:08:43;92612.38;;;19.32;98.45
39789;BME280;25478;42.626;23.320;2022-08-21T06:11:15;92610.91;;;19.40;97.34
39789;BME280;25478;42.626;23.320;2022-08-21T06:13:47;92611.53;;;19.44;95.92
39789;BME280;25478;42.626;23.320;2022-08-21T06:16:19;92605.09;;;19.32;95.42
39789;BME280;25478;42.626;23.320;2022-08-21T06:18:52;92615.38;;;19.43;95.62
39789;BME280;25478;42.626;23.320;2022-08-21T06:21:24;92609.13;;;19.37;95.96
39789;BME280;25478;42.626;23.320;2022-08-21T06:23:57;92609.88;;;19.37;96.44
39789;BME280;25478;42.626;23.320;2022-08-21T06:26:28;92611.69;;;19.50;96.42
39789;BME280;25478;42.626;23.320;2022-08-21T06:29:00;92609.19;;;19.55;94.85
39789;BME280;25478;42.626;23.320;2022-08-21T06:31:27;92604.13;;;19.48;93.54
39789;BME280;25478;42.626;23.320;2022-08-21T06:33:59;92613.59;;;19.49;93.66
39789;BME280;25478;42.626;23.320;2022-08-21T06:36:31;92613.19;;;19.51;93.57
39789;BME280;25478;42.626;23.320;2022-08-21T06:39:10;92617.63;;;19.54;93.61
39789;BME280;25478;42.626;23.320;2022-08-21T06:41:42;92623.28;;;19.56;93.68
39789;BME280;25478;42.626;23.320;2022-08-21T06:44:16;92627.19;;;19.64;93.29
39789;BME280;25478;42.626;23.320;2022-08-21T06:46:48;92620.34;;;19.63;92.66
39789;BME280;25478;42.626;23.320;2022-08-21T06:49:20;92617.75;;;19.50;92.28
39789;BME280;25478;42.626;23.320;2022-08-21T06:51:52;92616.88;;;19.44;93.33
39789;BME280;25478;42.626;23.320;2022-08-21T06:54:24;92631.69;;;19.45;93.76
39789;BME280;25478;42.626;23.320;2022-08-21T06:56:56;92631.56;;;19.49;94.26
39789;BME280;25478;42.626;23.320;2022-08-21T06:59:28;92637.63;;;19.49;94.95
39789;BME280;25478;42.626;23.320;2022-08-21T07:02:00;92632.47;;;19.55;95.30
39789;BME280;25478;42.626;23.320;2022-08-21T07:04:32;92631.28;;;19.56;95.37
39789;BME280;25478;42.626;23.320;2022-08-21T07:07:04;92625.84;;;19.59;95.22
39789;BME280;25478;42.626;23.320;2022-08-21T07:09:36;92631.94;;;19.60;95.34
39789;BME280;25478;42.626;23.320;2022-08-21T07:12:09;92631.78;;;19.63;94.25
39789;BME280;25478;42.626;23.320;2022-08-21T07:14:41;92639.03;;;19.63;93.74
39789;BME280;25478;42.626;23.320;2022-08-21T07:17:14;92636.53;;;19.68;92.81
39789;BME280;25478;42.626;23.320;2022-08-21T07:19:46;92635.09;;;19.77;91.99
39789;BME280;25478;42.626;23.320;2022-08-21T07:22:20;92635.09;;;19.86;90.99
39789;BME280;25478;42.626;23.320;2022-08-21T07:24:51;92631.69;;;19.85;91.55
39789;BME280;25478;42.626;23.320;2022-08-21T07:27:23;92624.88;;;19.93;91.41
39789;BME280;25478;42.626;23.320;2022-08-21T07:29:55;92623.53;;;19.98;91.16
39789;BME280;25478;42.626;23.320;2022-08-21T07:32:27;92623.69;;;20.04;90.80
39789;BME280;25478;42.626;23.320;2022-08-21T07:35:00;92616.41;;;20.13;90.76
39789;BME280;25478;42.626;23.320;2022-08-21T07:37:32;92618.50;;;20.28;89.80
39789;BME280;25478;42.626;23.320;2022-08-21T07:40:18;92609.75;;;20.36;89.62
39789;BME280;25478;42.626;23.320;2022-08-21T07:42:51;92616.28;;;20.54;88.65
39789;BME280;25478;42.626;23.320;2022-08-21T07:45:22;92616.09;;;20.75;87.91
39789;BME280;25478;42.626;23.320;2022-08-21T07:47:57;92611.72;;;21.05;86.44
39789;BME280;25478;42.626;23.320;2022-08-21T07:50:30;92611.63;;;21.24;84.38
39789;BME280;25478;42.626;23.320;2022-08-21T07:53:02;92606.28;;;21.24;83.64
39789;BME280;25478;42.626;23.320;2022-08-21T07:55:34;92616.53;;;21.34;83.32
39789;BME280;25478;42.626;23.320;2022-08-21T07:58:05;92601.03;;;21.39;81.71
39789;BME280;25478;42.626;23.320;2022-08-21T08:00:39;92601.53;;;21.61;81.38
39789;BME280;25478;42.626;23.320;2022-08-21T08:03:11;92612.81;;;21.89;80.38
39789;BME280;25478;42.626;23.320;2022-08-21T08:05:43;92615.06;;;22.14;79.28
39789;BME280;25478;42.626;23.320;2022-08-21T08:08:16;92606.13;;;22.32;78.95
39789;BME280;25478;42.626;23.320;2022-08-21T08:10:49;92617.47;;;22.66;77.35
39789;BME280;25478;42.626;23.320;2022-08-21T08:13:21;92622.03;;;22.89;75.22
39789;BME280;25478;42.626;23.320;2022-08-21T08:15:53;92618.44;;;23.07;73.40
39789;BME280;25478;42.626;23.320;2022-08-21T08:18:25;92621.22;;;23.13;72.30
39789;BME280;25478;42.626;23.320;2022-08-21T08:20:57;92618.31;;;23.16;72.33
39789;BME280;25478;42.626;23.320;2022-08-21T08:23:29;92616.56;;;22.98;72.45
39789;BME280;25478;42.626;23.320;2022-08-21T08:26:02;92617.38;;;22.75;73.07
39789;BME280;25478;42.626;23.320;2022-08-21T08:28:29;92619.22;;;22.69;73.05
39789;BME280;25478;42.626;23.320;2022-08-21T08:31:01;92619.13;;;22.63;73.18
39789;BME280;25478;42.626;23.320;2022-08-21T08:33:33;92617.81;;;22.59;73.95
39789;BME280;25478;42.626;23.320;2022-08-21T08:36:12;92625.41;;;22.60;74.09
39789;BME280;25478;42.626;23.320;2022-08-21T08:38:46;92628.00;;;22.55;73.76
39789;BME280;25478;42.626;23.320;2022-08-21T08:41:26;92629.44;;;22.41;74.32
39789;BME280;25478;42.626;23.320;2022-08-21T08:44:02;92615.38;;;22.31;74.30
39789;BME280;25478;42.626;23.320;2022-08-21T08:46:43;92622.97;;;22.33;73.87
39789;BME280;25478;42.626;23.320;2022-08-21T08:49:37;92620.91;;;22.28;74.11
39789;BME280;25478;42.626;23.320;2022-08-21T08:52:23;92623.59;;;22.28;73.35
39789;BME280;25478;42.626;23.320;2022-08-21T08:55:06;92615.66;;;22.33;72.90
39789;BME280;25478;42.626;23.320;2022-08-21T08:57:43;92600.16;;;22.37;72.64
39789;BME280;25478;42.626;23.320;2022-08-21T09:00:20;92610.78;;;22.61;73.54
39789;BME280;25478;42.626;23.320;2022-08-21T09:02:55;92608.78;;;22.71;72.49
39789;BME280;25478;42.626;23.320;2022-08-21T09:05:36;92609.16;;;22.79;70.45
39789;BME280;25478;42.626;23.320;2022-08-21T09:08:34;92611.78;;;22.88;70.73
39789;BME280;25478;42.626;23.320;2022-08-21T09:11:26;92604.38;;;22.97;70.50
39789;BME280;25478;42.626;23.320;2022-08-21T09:14:05;92608.22;;;23.11;69.44
39789;BME280;25478;42.626;23.320;2022-08-21T09:17:07;92589.56;;;23.37;68.71
39789;BME280;25478;42.626;23.320;2022-08-21T09:19:59;92594.91;;;23.67;67.53
39789;BME280;25478;42.626;23.320;2022-08-21T09:25:22;92579.72;;;24.04;64.72
39789;BME280;25478;42.626;23.320;2022-08-21T09:27:55;92577.44;;;24.18;65.19
39789;BME280;25478;42.626;23.320;2022-08-21T09:30:31;92583.22;;;24.31;64.08
39789;BME280;25478;42.626;23.320;2022-08-21T09:33:03;92575.75;;;24.40;64.28
39789;BME280;25478;42.626;23.320;2022-08-21T09:35:35;92579.44;;;24.43;63.31
39789;BME280;25478;42.626;23.320;2022-08-21T09:38:31;92579.91;;;24.21;63.87
39789;BME280;25478;42.626;23.320;2022-08-21T09:41:06;92583.56;;;23.98;64.37
39789;BME280;25478;42.626;23.320;2022-08-21T09:43:38;92581.25;;;23.70;64.17
39789;BME280;25478;42.626;23.320;2022-08-21T09:46:23;92573.81;;;23.45;64.75
39789;BME280;25478;42.626;23.320;2022-08-21T09:48:58;92579.88;;;23.25;64.74
39789;BME280;25478;42.626;23.320;2022-08-21T09:51:33;92576.56;;;23.15;65.68
39789;BME280;25478;42.626;23.320;2022-08-21T09:56:56;92570.66;;;22.82;68.25
39789;BME280;25478;42.626;23.320;2022-08-21T09:59:47;92573.72;;;22.74;68.17
39789;BME280;25478;42.626;23.320;2022-08-21T10:02:29;92575.66;;;22.74;68.44
39789;BME280;25478;42.626;23.320;2022-08-21T10:05:19;92570.00;;;22.72;69.03
39789;BME280;25478;42.626;23.320;2022-08-21T10:07:52;92560.28;;;22.60;69.98
39789;BME280;25478;42.626;23.320;2022-08-21T10:10:28;92570.91;;;22.69;70.26
39789;BME280;25478;42.626;23.320;2022-08-21T10:13:20;92574.66;;;22.71;70.27
39789;BME280;25478;42.626;23.320;2022-08-21T10:16:00;92562.13;;;22.83;69.65
39789;BME280;25478;42.626;23.320;2022-08-21T10:23:51;92555.13;;;23.00;69.99
39789;BME280;25478;42.626;23.320;2022-08-21T10:29:17;92552.66;;;23.52;68.01
39789;BME280;25478;42.626;23.320;2022-08-21T10:38:00;92534.09;;;24.10;66.44
39789;BME280;25478;42.626;23.320;2022-08-21T10:49:02;92531.06;;;24.23;65.24
39789;BME280;25478;42.626;23.320;2022-08-21T10:51:40;92527.81;;;24.19;65.23
39789;BME280;25478;42.626;23.320;2022-08-21T10:54:48;92531.47;;;24.15;64.69
39789;BME280;25478;42.626;23.320;2022-08-21T11:00:08;92514.59;;;24.15;64.41
39789;BME280;25478;42.626;23.320;2022-08-21T11:02:49;92514.38;;;24.19;64.99
39789;BME280;25478;42.626;23.320;2022-08-21T11:05:33;92511.69;;;24.19;63.96
39789;BME280;25478;42.626;23.320;2022-08-21T11:08:12;92511.28;;;24.26;63.33
39789;BME280;25478;42.626;23.320;2022-08-21T11:10:51;92507.22;;;24.36;62.81
39789;BME280;25478;42.626;23.320;2022-08-21T11:13:41;92507.38;;;24.53;61.96
39789;BME280;25478;42.626;23.320;2022-08-21T11:16:33;92499.56;;;24.55;60.77
39789;BME280;25478;42.626;23.320;2022-08-21T11:19:33;92496.03;;;24.43;60.58
39789;BME280;25478;42.626;23.320;2022-08-21T11:22:24;92499.91;;;24.36;59.58
39789;BME280;25478;42.626;23.320;2022-08-21T11:25:17;92506.88;;;24.28;59.57
39789;BME280;25478;42.626;23.320;2022-08-21T11:27:54;92495.03;;;24.14;60.54
39789;BME280;25478;42.626;23.320;2022-08-21T11:42:46;92490.81;;;24.08;60.22
39789;BME280;25478;42.626;23.320;2022-08-21T11:50:56;92481.41;;;23.98;59.23
39789;BME280;25478;42.626;23.320;2022-08-21T11:56:01;92497.81;;;24.00;59.62
39789;BME280;25478;42.626;23.320;2022-08-21T11:58:43;92487.22;;;23.91;59.98
39789;BME280;25478;42.626;23.320;2022-08-21T12:01:19;92495.13;;;23.79;60.61
39789;BME280;25478;42.626;23.320;2022-08-21T12:04:07;92486.03;;;23.71;60.57
39789;BME280;25478;42.626;23.320;2022-08-21T12:06:41;92470.41;;;23.55;60.81
39789;BME280;25478;42.626;23.320;2022-08-21T12:09:30;92473.91;;;23.61;60.68
39789;BME280;25478;42.626;23.320;2022-08-21T12:12:21;92469.28;;;23.62;60.46
39789;BME280;25478;42.626;23.320;2022-08-21T12:17:59;92482.34;;;23.54;61.88
39789;BME280;25478;42.626;23.320;2022-08-21T12:23:43;92491.91;;;23.55;61.65
39789;BME280;25478;42.626;23.320;2022-08-21T12:26:33;92494.72;;;23.46;62.19
39789;BME280;25478;42.626;23.320;2022-08-21T12:29:12;92487.50;;;23.37;63.02
39789;BME280;25478;42.626;23.320;2022-08-21T12:32:01;92487.19;;;23.29;63.65
39789;BME280;25478;42.626;23.320;2022-08-21T12:34:40;92485.63;;;23.23;64.42
39789;BME280;25478;42.626;23.320;2022-08-21T12:37:30;92488.50;;;23.19;65.02
39789;BME280;25478;42.626;23.320;2022-08-21T12:40:22;92459.44;;;22.97;65.90
39789;BME280;25478;42.626;23.320;2022-08-21T12:42:59;92476.81;;;23.02;66.84
39789;BME280;25478;42.626;23.320;2022-08-21T12:48:06;92482.38;;;22.98;67.80
39789;BME280;25478;42.626;23.320;2022-08-21T12:50:48;92480.63;;;22.95;68.63
39789;BME280;25478;42.626;23.320;2022-08-21T12:53:50;92476.19;;;22.92;69.24
39789;BME280;25478;42.626;23.320;2022-08-21T12:56:27;92465.91;;;22.91;70.08
39789;BME280;25478;42.626;23.320;2022-08-21T12:59:06;92470.63;;;22.96;70.38
39789;BME280;25478;42.626;23.320;2022-08-21T13:01:50;92459.59;;;22.94;69.89
39789;BME280;25478;42.626;23.320;2022-08-21T13:04:35;92451.56;;;22.94;69.03
39789;BME280;25478;42.626;23.320;2022-08-21T13:07:15;92462.84;;;22.98;69.11
39789;BME280;25478;42.626;23.320;2022-08-21T13:09:50;92453.97;;;22.92;69.08
39789;BME280;25478;42.626;23.320;2022-08-21T13:12:24;92473.38;;;23.01;67.48
39789;BME280;25478;42.626;23.320;2022-08-21T13:15:06;92462.03;;;22.92;67.42
39789;BME280;25478;42.626;23.320;2022-08-21T13:17:42;92459.69;;;22.99;67.10
39789;BME280;25478;42.626;23.320;2022-08-21T13:20:28;92457.75;;;23.00;67.14
39789;BME280;25478;42.626;23.320;2022-08-21T13:23:02;92458.47;;;23.00;67.86
39789;BME280;25478;42.626;23.320;2022-08-21T13:25:36;92453.69;;;23.05;67.21
39789;BME280;25478;42.626;23.320;2022-08-21T13:28:07;92437.91;;;23.12;67.28
39789;BME280;25478;42.626;23.320;2022-08-21T13:30:54;92429.25;;;23.23;67.71
39789;BME280;25478;42.626;23.320;2022-08-21T13:33:30;92419.84;;;23.33;66.25
39789;BME280;25478;42.626;23.320;2022-08-21T13:36:17;92423.47;;;23.50;65.50
39789;BME280;25478;42.626;23.320;2022-08-21T13:38:57;92430.53;;;23.68;65.09
39789;BME280;25478;42.626;23.320;2022-08-21T13:41:34;92426.06;;;23.85;63.17
39789;BME280;25478;42.626;23.320;2022-08-21T13:44:20;92424.69;;;23.96;63.21
39789;BME280;25478;42.626;23.320;2022-08-21T13:46:54;92433.81;;;24.04;63.47
39789;BME280;25478;42.626;23.320;2022-08-21T13:49:31;92418.56;;;23.95;65.48
39789;BME280;25478;42.626;23.320;2022-08-21T13:52:05;92432.06;;;24.01;66.85
39789;BME280;25478;42.626;23.320;2022-08-21T13:54:59;92435.25;;;23.99;67.10
39789;BME280;25478;42.626;23.320;2022-08-21T13:57:33;92422.88;;;23.87;66.78
39789;BME280;25478;42.626;23.320;2022-08-21T14:02:48;92419.84;;;23.74;67.63
39789;BME280;25478;42.626;23.320;2022-08-21T14:05:27;92427.16;;;23.73;68.50
39789;BME280;25478;42.626;23.320;2022-08-21T14:08:12;92423.91;;;23.64;69.81
39789;BME280;25478;42.626;23.320;2022-08-21T14:10:48;92412.94;;;23.47;71.48
39789;BME280;25478;42.626;23.320;2022-08-21T14:13:39;92433.72;;;23.52;72.39
39789;BME280;25478;42.626;23.320;2022-08-21T14:16:22;92431.13;;;23.37;73.28
39789;BME280;25478;42.626;23.320;2022-08-21T14:21:38;92426.75;;;23.19;74.50
39789;BME280;25478;42.626;23.320;2022-08-21T14:24:13;92420.03;;;23.09;74.76
39789;BME280;25478;42.626;23.320;2022-08-21T14:26:51;92426.34;;;23.06;74.56
39789;BME280;25478;42.626;23.320;2022-08-21T14:29:26;92427.75;;;23.01;74.24
39789;BME280;25478;42.626;23.320;2022-08-21T14:32:09;92414.19;;;22.90;73.59
39789;BME280;25478;42.626;23.320;2022-08-21T14:34:41;92427.84;;;23.07;73.71